Vestmannaeyjar, Vestmannaeyjar Airport (BIVM)

NameVestmannaeyjar Airport
CityVestmannaeyjar
CountryIceland
ICAOBIVM
IATAVEY
Altitude99 m
CoordinatesGoogle Map
Live Air TrafficLiveATC.net
METARBIVM 211300Z 10015KT 1000 SN VV003 M00/M00 Q0971
2019-01-21 13:00:00 Wind: East (100°) 7.72 m/s - Visibility: 1000 m - Weather: Snow - Temperature: -0 °C - Dew point: -0 °C - Humidity: 100% - Pressure: 0971 hPa

Sorry, no flights used the airport in this database.